Time;durP1;ratioP1;P1;durP2;ratioP2;P2;SDS_P1;SDS_P2;PMS_P1;PMS_P2;Temp;Humidity;BMP_temperature;BMP_pressure;BME280_temperature;BME280_humidity;BME280_pressure;Samples;Min_cycle;Max_cycle;Signal;HPM_P1;HPM_P2
2022/03/19 00:01:57;;;;;;;11.68;5.20;;;9.20;99.90;;;;;;4143551;28;20030;-67
2022/03/19 00:03:58;;;;;;;15.20;5.72;;;9.20;99.90;;;;;;4144392;28;20180;-67
2022/03/19 00:05:59;;;;;;;13.15;5.50;;;9.10;99.90;;;;;;4143493;28;20045;-67
2022/03/19 00:08:01;;;;;;;10.45;5.45;;;9.10;99.90;;;;;;4143087;28;20077;-67
2022/03/19 00:10:04;;;;;;;10.65;5.30;;;9.00;99.90;;;;;;4143908;28;20038;-67
2022/03/19 00:12:13;;;;;;;9.32;5.00;;;8.90;99.90;;;;;;4143776;28;20096;-67
2022/03/19 00:14:14;;;;;;;8.70;5.00;;;8.90;99.90;;;;;;4144058;28;20057;-67
2022/03/19 00:16:15;;;;;;;11.25;5.07;;;8.80;99.90;;;;;;4141141;28;20509;-67
2022/03/19 00:18:16;;;;;;;11.68;5.38;;;8.70;99.90;;;;;;4143148;28;20478;-67
2022/03/19 00:20:17;;;;;;;8.63;4.73;;;8.50;99.90;;;;;;4142627;28;20037;-67
2022/03/19 00:22:18;;;;;;;8.48;5.22;;;8.50;99.90;;;;;;4145434;28;20050;-66
2022/03/19 00:24:19;;;;;;;10.35;5.20;;;8.40;99.90;;;;;;4143622;28;20473;-67
2022/03/19 00:26:20;;;;;;;9.82;4.68;;;8.30;99.90;;;;;;4143228;28;20038;-67
2022/03/19 00:28:20;;;;;;;10.18;4.75;;;8.20;99.90;;;;;;4144386;28;20137;-67
2022/03/19 00:30:21;;;;;;;12.43;6.20;;;8.10;99.90;;;;;;4143432;28;20041;-66
2022/03/19 00:32:22;;;;;;;14.45;6.35;;;8.00;99.90;;;;;;4144580;28;20389;-67
2022/03/19 00:34:22;;;;;;;8.38;5.53;;;8.00;99.90;;;;;;4142076;28;20064;-66
2022/03/19 00:36:23;;;;;;;10.30;5.85;;;8.10;99.90;;;;;;4141607;28;20050;-66
2022/03/19 00:38:24;;;;;;;12.35;5.63;;;8.00;99.90;;;;;;4142723;28;20042;-66
2022/03/19 00:40:26;;;;;;;9.52;5.78;;;7.90;99.90;;;;;;4144382;28;20544;-66
2022/03/19 00:42:26;;;;;;;8.57;5.20;;;8.00;99.90;;;;;;4139526;28;20045;-66
2022/03/19 00:44:27;;;;;;;10.43;5.95;;;8.00;99.90;;;;;;4146349;28;20053;-66
2022/03/19 00:46:28;;;;;;;11.18;5.53;;;8.00;99.90;;;;;;4141595;28;20096;-67
2022/03/19 00:48:28;;;;;;;9.55;5.70;;;8.10;99.90;;;;;;4143791;28;20397;-66
2022/03/19 00:50:29;;;;;;;10.85;5.90;;;8.00;99.90;;;;;;4142464;28;20100;-67
2022/03/19 00:52:29;;;;;;;12.48;5.43;;;8.10;99.90;;;;;;4141503;28;20057;-66
2022/03/19 00:54:30;;;;;;;8.10;5.10;;;8.00;99.90;;;;;;4142528;28;20084;-67
2022/03/19 00:56:31;;;;;;;8.57;5.53;;;8.10;99.90;;;;;;4141969;28;20045;-67
2022/03/19 00:58:31;;;;;;;10.75;5.40;;;8.10;99.90;;;;;;4142401;28;20038;-67
2022/03/19 01:00:32;;;;;;;8.75;4.93;;;8.10;99.90;;;;;;4140392;28;20050;-66
2022/03/19 01:02:32;;;;;;;8.73;5.40;;;8.10;99.90;;;;;;4142212;28;20547;-66
2022/03/19 01:04:33;;;;;;;10.35;5.80;;;8.10;99.90;;;;;;4141764;28;20400;-67
2022/03/19 01:06:34;;;;;;;8.68;5.30;;;8.10;99.90;;;;;;4141849;28;20037;-67
2022/03/19 01:08:34;;;;;;;9.75;5.07;;;8.10;99.90;;;;;;4142549;28;20095;-67
2022/03/19 01:10:35;;;;;;;11.77;5.40;;;8.00;99.90;;;;;;4141158;28;20038;-66
2022/03/19 01:12:36;;;;;;;13.60;6.05;;;8.00;99.90;;;;;;4142686;28;20084;-67
2022/03/19 01:14:36;;;;;;;9.95;5.25;;;8.10;99.90;;;;;;4144485;28;20054;-67
2022/03/19 01:16:37;;;;;;;7.60;4.88;;;8.10;99.90;;;;;;4144482;28;20068;-67
2022/03/19 01:18:38;;;;;;;10.30;5.10;;;8.10;99.90;;;;;;4146141;28;20038;-67
2022/03/19 01:20:40;;;;;;;10.40;6.00;;;8.20;99.90;;;;;;4144384;28;20146;-66
2022/03/19 01:22:43;;;;;;;9.60;4.93;;;8.20;99.90;;;;;;4145749;28;20416;-67
2022/03/19 01:24:44;;;;;;;10.45;5.68;;;8.20;99.90;;;;;;4143167;28;20144;-67
2022/03/19 01:26:45;;;;;;;9.75;5.82;;;8.30;99.90;;;;;;4143014;28;20481;-67
2022/03/19 01:28:45;;;;;;;8.93;6.00;;;8.30;99.90;;;;;;4143429;28;20038;-67
2022/03/19 01:30:46;;;;;;;13.00;6.05;;;8.30;99.90;;;;;;4141505;28;20034;-67
2022/03/19 01:32:47;;;;;;;11.27;5.97;;;8.20;99.90;;;;;;4144423;28;20088;-67
2022/03/19 01:34:48;;;;;;;10.63;6.10;;;8.30;99.90;;;;;;4143354;28;20096;-67
2022/03/19 01:36:48;;;;;;;13.13;5.85;;;8.20;99.90;;;;;;4143314;28;20470;-67
2022/03/19 01:38:49;;;;;;;11.02;5.93;;;8.30;99.90;;;;;;4141272;28;20367;-66
2022/03/19 01:40:49;;;;;;;11.68;6.10;;;8.30;99.90;;;;;;4141577;28;20033;-67
2022/03/19 01:42:51;;;;;;;7.90;4.93;;;8.30;99.90;;;;;;4141877;28;20125;-67
2022/03/19 01:44:53;;;;;;;9.55;5.38;;;8.40;99.90;;;;;;4143401;28;20044;-66
2022/03/19 01:46:59;;;;;;;10.52;6.13;;;8.40;99.90;;;;;;4142211;28;20041;-66
2022/03/19 01:48:59;;;;;;;9.95;5.68;;;8.30;99.90;;;;;;4146395;28;20481;-67
2022/03/19 01:51:00;;;;;;;10.40;5.63;;;8.20;99.90;;;;;;4141296;28;20042;-66
2022/03/19 01:53:02;;;;;;;8.95;5.10;;;8.20;99.90;;;;;;4142007;28;20713;-67
2022/03/19 01:55:04;;;;;;;10.60;5.60;;;8.10;99.90;;;;;;4140695;28;20053;-68
2022/03/19 01:57:06;;;;;;;9.75;5.55;;;8.10;99.90;;;;;;4141984;28;20049;-67
2022/03/19 01:59:07;;;;;;;11.38;6.20;;;7.90;99.90;;;;;;4141964;28;20117;-66
2022/03/19 02:01:07;;;;;;;14.35;6.13;;;7.80;99.90;;;;;;4142119;28;20042;-66
2022/03/19 02:03:09;;;;;;;11.10;6.05;;;7.80;99.90;;;;;;4142933;28;20125;-66
2022/03/19 02:05:15;;;;;;;16.05;6.95;;;7.80;99.90;;;;;;4140509;28;20046;-68
2022/03/19 02:07:15;;;;;;;14.68;6.55;;;7.50;99.90;;;;;;4142470;28;20604;-67
2022/03/19 02:09:16;;;;;;;11.18;5.80;;;7.30;99.90;;;;;;4144361;28;20052;-67
2022/03/19 02:11:17;;;;;;;12.43;6.97;;;7.30;99.90;;;;;;4140777;28;20077;-67
2022/03/19 02:13:17;;;;;;;16.25;7.18;;;7.20;99.90;;;;;;4141326;28;20133;-67
2022/03/19 02:15:18;;;;;;;16.10;7.88;;;7.20;99.90;;;;;;4142528;28;20145;-67
2022/03/19 02:17:19;;;;;;;11.27;6.47;;;7.20;99.90;;;;;;4143974;28;20042;-67
2022/03/19 02:19:20;;;;;;;12.77;7.32;;;7.20;99.90;;;;;;4141542;28;20042;-67
2022/03/19 02:21:21;;;;;;;10.63;5.80;;;7.10;99.90;;;;;;4142261;28;20034;-67
2022/03/19 02:25:46;;;;;;;13.48;7.00;;;7.10;99.90;;;;;;4142139;28;20034;-66
2022/03/19 02:27:47;;;;;;;10.23;6.78;;;7.10;99.90;;;;;;4140082;28;20489;-67
2022/03/19 02:29:48;;;;;;;10.45;6.80;;;7.20;99.90;;;;;;4142200;28;20026;-66
2022/03/19 02:31:52;;;;;;;13.63;7.00;;;7.20;99.90;;;;;;4141722;28;20038;-66
2022/03/19 02:33:53;;;;;;;17.90;7.03;;;7.10;99.90;;;;;;4140858;28;20054;-67
2022/03/19 02:35:53;;;;;;;13.93;7.25;;;7.10;99.90;;;;;;4143595;28;20037;-67
2022/03/19 02:37:54;;;;;;;10.77;7.10;;;7.00;99.90;;;;;;4142934;28;20398;-67
2022/03/19 02:39:54;;;;;;;12.43;7.45;;;7.10;99.90;;;;;;4143065;28;20147;-66
2022/03/19 02:41:59;;;;;;;16.90;7.93;;;7.00;99.90;;;;;;4142430;28;20038;-66
2022/03/19 02:44:00;;;;;;;18.27;8.27;;;6.80;99.90;;;;;;4143893;28;20473;-66
2022/03/19 02:46:01;;;;;;;11.43;7.43;;;6.80;99.90;;;;;;4145328;28;20025;-67
2022/03/19 02:48:01;;;;;;;19.45;8.57;;;6.80;99.90;;;;;;4145619;28;20057;-66
2022/03/19 02:50:02;;;;;;;16.60;7.90;;;6.80;99.90;;;;;;4146290;28;20038;-68
2022/03/19 02:52:03;;;;;;;15.13;7.65;;;6.80;99.90;;;;;;4145670;28;20362;-66
2022/03/19 02:54:07;;;;;;;12.77;7.78;;;6.90;99.90;;;;;;4144293;28;20129;-67
2022/03/19 02:56:07;;;;;;;13.98;7.68;;;6.90;99.90;;;;;;4141866;28;20038;-67
2022/03/19 02:58:09;;;;;;;16.13;9.20;;;7.00;99.90;;;;;;4144983;28;20370;-67
2022/03/19 03:00:10;;;;;;;17.90;8.50;;;7.00;99.90;;;;;;4144514;28;20045;-67
2022/03/19 03:02:10;;;;;;;14.10;8.20;;;7.00;99.90;;;;;;4143711;28;20042;-67
2022/03/19 03:04:11;;;;;;;17.27;8.40;;;7.00;99.90;;;;;;4145449;28;20049;-67
2022/03/19 03:06:13;;;;;;;15.18;8.05;;;7.00;99.90;;;;;;4145084;28;20121;-67
2022/03/19 03:08:15;;;;;;;15.57;7.38;;;7.00;99.90;;;;;;4142575;28;20046;-67
2022/03/19 03:10:16;;;;;;;17.20;8.30;;;7.00;99.90;;;;;;4143609;28;20068;-67
2022/03/19 03:12:17;;;;;;;16.10;8.37;;;7.10;99.90;;;;;;4145893;28;20117;-67
2022/03/19 03:14:21;;;;;;;16.33;7.50;;;7.10;99.90;;;;;;4144633;28;20070;-66
2022/03/19 03:16:21;;;;;;;17.83;7.45;;;7.20;99.90;;;;;;4145059;28;20049;-67
2022/03/19 03:18:22;;;;;;;13.27;7.10;;;7.20;99.90;;;;;;4146329;28;20486;-67
2022/03/19 03:20:23;;;;;;;12.27;7.10;;;7.00;99.90;;;;;;4145032;28;20049;-67
2022/03/19 03:22:23;;;;;;;13.52;7.03;;;7.10;99.90;;;;;;4145259;28;20073;-66
2022/03/19 03:24:25;;;;;;;13.77;6.75;;;6.90;99.90;;;;;;4144712;28;20124;-67
2022/03/19 03:26:26;;;;;;;12.85;7.70;;;6.90;99.90;;;;;;4143352;28;20062;-66
2022/03/19 03:28:27;;;;;;;9.93;6.07;;;6.90;99.90;;;;;;4146053;28;20042;-66
2022/03/19 03:30:28;;;;;;;10.35;6.60;;;6.90;99.90;;;;;;4145251;28;20033;-67
2022/03/19 03:32:28;;;;;;;14.00;6.38;;;6.90;99.90;;;;;;4144677;28;20057;-67
2022/03/19 03:34:29;;;;;;;14.65;7.07;;;6.80;99.90;;;;;;4146564;28;20080;-66
2022/03/19 03:36:29;;;;;;;12.60;6.50;;;6.70;99.90;;;;;;4143358;28;20463;-66
2022/03/19 03:38:30;;;;;;;13.80;7.28;;;6.60;99.90;;;;;;4143345;28;20076;-66
2022/03/19 03:40:31;;;;;;;12.57;6.15;;;6.50;99.90;;;;;;4145420;28;20462;-67
2022/03/19 03:42:32;;;;;;;16.60;6.97;;;6.50;99.90;;;;;;4146389;28;20042;-66
2022/03/19 03:44:32;;;;;;;13.35;6.97;;;6.40;99.90;;;;;;4141827;28;20069;-66
2022/03/19 03:46:33;;;;;;;14.93;6.65;;;6.40;99.90;;;;;;4143302;28;20042;-67
2022/03/19 03:48:38;;;;;;;10.30;6.20;;;6.40;99.90;;;;;;4145270;28;20520;-66
2022/03/19 03:50:39;;;;;;;11.30;5.63;;;6.40;99.90;;;;;;4145787;28;20076;-67
2022/03/19 03:52:40;;;;;;;10.57;6.22;;;6.40;99.90;;;;;;4144068;28;20074;-66
2022/03/19 03:54:41;;;;;;;11.68;6.22;;;6.30;99.90;;;;;;4144658;28;20482;-67
2022/03/19 03:56:41;;;;;;;17.00;7.38;;;6.30;99.90;;;;;;4142946;28;20054;-67
2022/03/19 03:58:43;;;;;;;13.35;7.10;;;6.20;99.90;;;;;;4145456;28;20038;-67
2022/03/19 04:00:43;;;;;;;12.63;6.53;;;6.30;99.90;;;;;;4144433;28;20512;-67
2022/03/19 04:02:44;;;;;;;13.35;5.97;;;6.30;99.90;;;;;;4145653;28;20086;-67
2022/03/19 04:04:45;;;;;;;10.38;5.72;;;6.30;99.90;;;;;;4143457;28;20054;-66
2022/03/19 04:06:45;;;;;;;11.23;5.97;;;6.30;99.90;;;;;;4142753;28;20029;-67
2022/03/19 04:08:46;;;;;;;12.10;6.05;;;6.40;99.90;;;;;;4145663;28;20033;-67
2022/03/19 04:10:46;;;;;;;10.45;6.50;;;6.40;99.90;;;;;;4140872;28;20034;-67
2022/03/19 04:12:47;;;;;;;13.45;5.65;;;6.40;99.90;;;;;;4143389;28;20481;-67
2022/03/19 04:14:51;;;;;;;12.10;6.35;;;6.40;99.90;;;;;;4144767;28;20404;-66
2022/03/19 04:16:52;;;;;;;9.88;6.00;;;6.30;99.90;;;;;;4146846;28;20520;-67
2022/03/19 04:18:52;;;;;;;12.05;6.00;;;6.30;99.90;;;;;;4141596;28;20042;-67
2022/03/19 04:20:53;;;;;;;10.13;5.53;;;6.40;99.90;;;;;;4144753;28;20100;-67
2022/03/19 04:22:54;;;;;;;13.77;6.35;;;6.50;99.90;;;;;;4145004;28;20054;-67
2022/03/19 04:24:55;;;;;;;8.43;5.03;;;6.50;99.90;;;;;;4144329;28;20041;-66
2022/03/19 04:26:56;;;;;;;8.63;5.80;;;6.50;99.90;;;;;;4142633;28;20484;-67
2022/03/19 04:28:57;;;;;;;8.40;5.50;;;6.60;99.90;;;;;;4143790;28;20029;-66
2022/03/19 04:30:58;;;;;;;7.65;5.03;;;6.70;99.90;;;;;;4142657;28;20444;-67
2022/03/19 04:33:01;;;;;;;9.43;5.75;;;6.80;99.90;;;;;;4147064;28;20116;-67
2022/03/19 04:36:29;;;;;;;8.38;5.30;;;6.80;99.90;;;;;;4144625;28;20037;-67
2022/03/19 04:37:22;;;;;;;9.35;5.43;;;6.90;99.90;;;;;;4143778;28;20045;-67
2022/03/19 04:39:22;;;;;;;8.10;5.32;;;7.00;99.90;;;;;;4143847;28;20128;-67
2022/03/19 04:41:23;;;;;;;9.90;5.50;;;7.00;99.90;;;;;;4141272;28;20038;-67
2022/03/19 04:43:24;;;;;;;9.10;5.15;;;7.00;99.90;;;;;;4143542;28;20049;-67
2022/03/19 04:45:25;;;;;;;7.70;4.63;;;7.10;99.90;;;;;;4144095;28;20038;-67
2022/03/19 04:47:25;;;;;;;8.98;4.82;;;7.10;99.90;;;;;;4142051;28;20045;-66
2022/03/19 04:49:26;;;;;;;10.75;5.70;;;7.20;99.90;;;;;;4140598;28;20034;-67
2022/03/19 04:51:36;;;;;;;8.77;5.18;;;7.20;99.90;;;;;;4139864;28;20466;-67
2022/03/19 04:53:38;;;;;;;9.65;5.15;;;7.30;99.90;;;;;;4138362;28;20034;-67
2022/03/19 04:55:39;;;;;;;9.43;5.18;;;7.30;99.90;;;;;;4145875;28;20041;-66
2022/03/19 04:57:40;;;;;;;9.60;5.00;;;7.40;99.90;;;;;;4144719;28;20389;-67
2022/03/19 04:59:40;;;;;;;7.97;4.63;;;7.40;99.90;;;;;;4142531;28;20042;-67
2022/03/19 05:01:41;;;;;;;8.68;4.90;;;7.40;99.90;;;;;;4142648;28;20073;-67
2022/03/19 05:03:42;;;;;;;9.43;4.65;;;7.40;99.90;;;;;;4144043;28;20042;-67
2022/03/19 05:05:42;;;;;;;12.38;5.40;;;7.50;99.90;;;;;;4141892;28;20068;-67
2022/03/19 05:07:43;;;;;;;7.63;5.22;;;7.50;99.90;;;;;;4141308;28;20469;-67
2022/03/19 05:12:05;;;;;;;9.82;5.88;;;7.50;99.90;;;;;;4140752;28;20472;-66
2022/03/19 05:14:06;;;;;;;9.75;4.90;;;7.50;99.90;;;;;;4140709;28;20497;-67
2022/03/19 05:16:06;;;;;;;8.85;5.63;;;7.50;99.90;;;;;;4142494;28;20140;-67
2022/03/19 05:18:07;;;;;;;14.00;6.28;;;7.50;99.90;;;;;;4143608;28;20038;-66
2022/03/19 05:20:09;;;;;;;9.82;5.38;;;7.50;99.90;;;;;;4142060;28;20366;-68
2022/03/19 05:22:09;;;;;;;8.83;5.20;;;7.50;99.90;;;;;;4143295;28;20050;-67
2022/03/19 05:24:10;;;;;;;9.02;4.80;;;7.50;99.90;;;;;;4144519;28;20049;-67
2022/03/19 05:26:11;;;;;;;9.30;5.88;;;7.50;99.90;;;;;;4141811;28;20042;-67
2022/03/19 05:28:12;;;;;;;9.05;5.22;;;7.50;99.90;;;;;;4142523;28;20056;-67
2022/03/19 05:30:12;;;;;;;10.05;5.45;;;7.50;99.90;;;;;;4143576;28;20125;-67
2022/03/19 05:32:13;;;;;;;10.60;5.60;;;7.50;99.90;;;;;;4145314;28;20500;-66
2022/03/19 05:34:29;;;;;;;11.35;5.22;;;7.50;99.90;;;;;;4143795;28;20038;-67
2022/03/19 05:36:30;;;;;;;8.90;5.35;;;7.50;99.90;;;;;;4141734;28;20045;-66
2022/03/19 05:38:31;;;;;;;7.57;4.90;;;7.50;99.90;;;;;;4142093;28;20034;-67
2022/03/19 05:40:31;;;;;;;8.73;5.10;;;7.50;99.90;;;;;;4143433;28;20595;-66
2022/03/19 05:42:32;;;;;;;10.27;4.93;;;7.50;99.90;;;;;;4143001;28;20139;-66
2022/03/19 05:44:33;;;;;;;10.10;5.00;;;7.50;99.90;;;;;;4143818;28;20045;-66
2022/03/19 05:46:34;;;;;;;10.00;5.60;;;7.50;99.90;;;;;;4142861;28;20041;-66
2022/03/19 05:48:34;;;;;;;10.15;5.40;;;7.50;99.90;;;;;;4142728;28;20033;-66
2022/03/19 05:50:36;;;;;;;10.07;5.38;;;7.50;99.90;;;;;;4144951;28;20041;-67
2022/03/19 05:52:37;;;;;;;8.25;4.60;;;7.50;99.90;;;;;;4142705;28;20034;-67
2022/03/19 05:54:37;;;;;;;7.35;4.82;;;7.50;99.90;;;;;;4143010;28;20041;-67
2022/03/19 05:56:38;;;;;;;8.25;5.10;;;7.50;99.90;;;;;;4140849;28;20127;-67
2022/03/19 05:58:39;;;;;;;8.05;5.60;;;7.50;99.90;;;;;;4142701;28;20034;-67
2022/03/19 06:00:39;;;;;;;11.18;5.90;;;7.50;99.90;;;;;;4141641;28;20038;-67
2022/03/19 06:02:43;;;;;;;7.93;4.88;;;7.50;99.90;;;;;;4143251;28;20041;-67
2022/03/19 06:04:43;;;;;;;11.73;5.35;;;7.50;99.90;;;;;;4142852;28;20038;-66
2022/03/19 06:06:44;;;;;;;6.93;4.50;;;7.50;99.90;;;;;;4143172;28;20041;-67
2022/03/19 06:08:45;;;;;;;9.32;5.40;;;7.50;99.90;;;;;;4142272;28;20322;-67
2022/03/19 06:10:45;;;;;;;8.98;5.70;;;7.50;99.90;;;;;;4140991;28;20388;-67
2022/03/19 06:12:46;;;;;;;8.88;4.82;;;7.50;99.90;;;;;;4146567;28;20133;-67
2022/03/19 06:14:49;;;;;;;10.93;5.07;;;7.50;99.90;;;;;;4148886;28;20065;-67
2022/03/19 06:16:50;;;;;;;8.18;4.93;;;7.50;99.90;;;;;;4139674;28;20538;-67
2022/03/19 06:18:50;;;;;;;8.98;4.97;;;7.50;99.90;;;;;;4145853;28;20040;-67
2022/03/19 06:20:51;;;;;;;8.90;5.63;;;7.50;99.90;;;;;;4144824;28;20129;-66
2022/03/19 06:22:51;;;;;;;8.93;5.10;;;7.50;99.90;;;;;;4144020;28;20100;-67
2022/03/19 06:24:52;;;;;;;10.27;5.35;;;7.50;99.90;;;;;;4129674;28;20046;-67
2022/03/19 06:26:53;;;;;;;7.68;4.80;;;7.60;99.90;;;;;;4144929;28;20529;-67
2022/03/19 06:28:53;;;;;;;12.00;5.28;;;7.60;99.90;;;;;;4147177;28;20116;-67
2022/03/19 06:30:54;;;;;;;7.60;5.07;;;7.60;99.90;;;;;;4144676;28;20038;-66
2022/03/19 06:32:55;;;;;;;11.05;5.47;;;7.60;99.90;;;;;;4146272;28;20070;-67
2022/03/19 06:34:56;;;;;;;10.70;5.68;;;7.60;99.90;;;;;;4145906;28;20054;-67
2022/03/19 06:39:16;;;;;;;9.20;4.80;;;7.60;99.90;;;;;;4145724;28;20038;-67
2022/03/19 06:41:16;;;;;;;7.75;5.15;;;7.70;99.90;;;;;;4144091;28;20183;-67
2022/03/19 06:43:18;;;;;;;7.22;4.53;;;7.70;99.90;;;;;;4143878;28;20041;-67
2022/03/19 06:45:18;;;;;;;9.15;5.43;;;7.70;99.90;;;;;;4147070;28;20052;-67
2022/03/19 06:47:19;;;;;;;9.65;5.97;;;7.80;99.90;;;;;;4143019;28;20465;-67
2022/03/19 06:49:19;;;;;;;9.05;5.30;;;7.90;99.90;;;;;;4146851;28;20485;-67
2022/03/19 06:51:20;;;;;;;9.43;5.57;;;8.10;99.90;;;;;;4145179;28;20117;-67
2022/03/19 06:53:22;;;;;;;11.68;6.18;;;8.40;99.90;;;;;;4145275;28;20026;-67
2022/03/19 06:55:23;;;;;;;9.73;5.53;;;8.50;99.90;;;;;;4141865;28;20548;-67
2022/03/19 06:57:24;;;;;;;12.45;5.93;;;8.70;99.90;;;;;;4146181;28;20331;-67
2022/03/19 06:59:24;;;;;;;11.40;5.85;;;8.80;99.90;;;;;;4146507;28;20042;-67
2022/03/19 07:01:25;;;;;;;9.93;5.40;;;9.00;99.90;;;;;;4145321;28;20076;-67
2022/03/19 07:03:26;;;;;;;10.68;5.88;;;9.20;99.90;;;;;;4145403;28;20033;-67
2022/03/19 07:05:28;;;;;;;10.18;5.82;;;9.40;99.90;;;;;;4144163;28;20037;-67
2022/03/19 07:07:28;;;;;;;10.40;5.30;;;9.40;99.90;;;;;;4139180;28;20544;-67
2022/03/19 07:09:29;;;;;;;12.80;6.45;;;9.60;99.90;;;;;;4143080;28;20092;-67
2022/03/19 07:11:31;;;;;;;12.27;6.13;;;9.70;99.90;;;;;;4143470;28;20041;-67
2022/03/19 07:13:32;;;;;;;11.02;5.75;;;9.80;99.90;;;;;;4143189;28;20041;-67
2022/03/19 07:15:33;;;;;;;12.20;5.53;;;10.10;99.90;;;;;;4145896;28;20069;-67
2022/03/19 07:17:33;;;;;;;10.38;5.13;;;10.20;99.90;;;;;;4145621;28;20038;-68
2022/03/19 07:19:34;;;;;;;11.68;5.32;;;10.40;99.90;;;;;;4145607;28;20064;-67
2022/03/19 07:21:35;;;;;;;10.98;5.88;;;10.60;99.90;;;;;;4146051;28;20045;-68
2022/03/19 07:23:35;;;;;;;12.23;6.13;;;10.80;99.90;;;;;;4143832;28;20050;-67
2022/03/19 07:25:38;;;;;;;11.65;6.07;;;10.90;99.90;;;;;;4143357;28;20436;-67
2022/03/19 07:27:39;;;;;;;12.68;6.45;;;10.90;99.90;;;;;;4145053;28;20084;-67
2022/03/19 07:29:39;;;;;;;16.17;6.22;;;11.00;99.90;;;;;;4146240;28;20515;-70
2022/03/19 07:31:40;;;;;;;12.85;6.70;;;11.20;99.90;;;;;;4143793;28;20382;-70
2022/03/19 07:33:40;;;;;;;15.27;6.63;;;11.10;99.90;;;;;;4144658;28;20057;-70
2022/03/19 07:35:41;;;;;;;13.93;6.10;;;10.80;99.90;;;;;;4145633;28;20026;-68
2022/03/19 07:37:44;;;;;;;15.57;5.72;;;11.10;99.90;;;;;;4130720;28;20065;-67
2022/03/19 07:39:44;;;;;;;11.80;5.57;;;11.30;99.90;;;;;;4145897;28;20041;-67
2022/03/19 07:41:52;;;;;;;12.40;5.90;;;11.50;99.90;;;;;;4141424;28;20042;-67
2022/03/19 07:43:53;;;;;;;16.77;5.57;;;11.50;99.90;;;;;;4143593;28;20438;-68
2022/03/19 07:45:53;;;;;;;11.50;5.85;;;11.60;99.90;;;;;;4141881;28;20096;-67
2022/03/19 07:47:54;;;;;;;12.93;5.80;;;11.40;99.90;;;;;;4140625;28;20113;-71
2022/03/19 07:49:54;;;;;;;15.88;5.68;;;11.60;99.90;;;;;;4145235;28;20052;-68
2022/03/19 07:51:55;;;;;;;18.30;6.07;;;11.70;99.90;;;;;;4145534;28;20034;-68
2022/03/19 07:53:56;;;;;;;13.18;5.13;;;12.00;99.90;;;;;;4144017;28;20046;-68
2022/03/19 07:55:57;;;;;;;10.82;4.70;;;11.80;99.90;;;;;;4143776;28;20084;-67
2022/03/19 07:57:57;;;;;;;10.13;4.60;;;11.80;99.90;;;;;;4143046;28;20064;-66
2022/03/19 07:59:58;;;;;;;15.35;5.30;;;12.00;99.90;;;;;;4147076;28;20045;-67
2022/03/19 08:01:59;;;;;;;11.05;5.25;;;12.00;99.90;;;;;;4142556;28;20038;-67
2022/03/19 08:04:00;;;;;;;15.20;5.13;;;12.40;99.90;;;;;;4145800;28;20044;-67
2022/03/19 08:06:01;;;;;;;13.23;4.90;;;12.60;99.90;;;;;;4144250;28;20548;-67
2022/03/19 08:08:05;;;;;;;14.40;5.43;;;12.40;99.90;;;;;;4144520;28;20038;-67
2022/03/19 08:10:07;;;;;;;10.48;4.50;;;12.30;99.90;;;;;;4144727;28;20034;-68
2022/03/19 08:12:09;;;;;;;11.70;5.13;;;12.60;99.90;;;;;;4143259;28;20041;-67
2022/03/19 08:14:09;;;;;;;10.10;4.35;;;12.90;99.90;;;;;;4142755;28;20046;-67
2022/03/19 08:16:11;;;;;;;17.02;4.80;;;13.30;99.90;;;;;;4141768;28;20537;-68
2022/03/19 08:18:13;;;;;;;12.85;4.97;;;13.00;99.90;;;;;;4142908;28;20066;-68
2022/03/19 08:20:15;;;;;;;10.70;5.03;;;12.80;99.90;;;;;;4146744;28;20116;-68
2022/03/19 08:22:15;;;;;;;8.35;4.45;;;12.90;99.90;;;;;;4145164;28;20049;-67
2022/03/19 08:24:16;;;;;;;10.02;4.97;;;13.20;99.90;;;;;;4126920;28;20069;-67
2022/03/19 08:26:16;;;;;;;17.15;5.32;;;13.60;99.90;;;;;;4143404;28;20041;-67
2022/03/19 08:28:17;;;;;;;14.10;5.20;;;13.10;99.90;;;;;;4147204;28;20128;-67
2022/03/19 08:30:19;;;;;;;11.50;4.85;;;12.50;99.90;;;;;;4143151;28;20516;-68
2022/03/19 08:32:20;;;;;;;10.68;4.47;;;12.40;99.90;;;;;;4144580;28;20038;-68
2022/03/19 08:34:22;;;;;;;12.45;5.00;;;12.50;99.90;;;;;;4145269;28;20046;-67
2022/03/19 08:36:24;;;;;;;19.25;6.80;;;12.70;99.90;;;;;;4144143;28;20062;-68
2022/03/19 08:40:44;;;;;;;14.45;5.32;;;12.70;99.90;;;;;;4140938;28;20061;-67
2022/03/19 08:42:51;;;;;;;13.85;5.40;;;12.60;99.90;;;;;;4145458;28;20033;-67
2022/03/19 08:44:51;;;;;;;14.60;6.10;;;12.50;99.90;;;;;;4144015;28;20732;-67
2022/03/19 08:46:52;;;;;;;11.00;4.95;;;12.60;99.90;;;;;;4140864;28;20044;-68
2022/03/19 08:48:53;;;;;;;17.33;5.65;;;12.70;99.90;;;;;;4142987;28;20050;-67
2022/03/19 08:50:53;;;;;;;13.15;5.60;;;12.70;99.90;;;;;;4147963;28;20033;-67
2022/03/19 08:52:54;;;;;;;12.85;5.53;;;12.60;99.90;;;;;;4145614;28;20034;-68
2022/03/19 08:54:55;;;;;;;12.25;5.20;;;12.70;99.90;;;;;;4142919;28;20046;-68
2022/03/19 08:56:56;;;;;;;14.15;5.40;;;12.70;99.90;;;;;;4142698;28;20054;-68
2022/03/19 08:58:56;;;;;;;14.65;4.68;;;12.60;99.90;;;;;;4144386;28;20104;-68
2022/03/19 09:00:57;;;;;;;14.60;5.40;;;12.40;99.90;;;;;;4142613;28;20111;-68
2022/03/19 09:02:58;;;;;;;12.98;4.78;;;12.40;99.90;;;;;;4141631;28;20042;-67
2022/03/19 09:04:59;;;;;;;14.02;5.43;;;12.50;99.90;;;;;;4143083;28;20053;-67
2022/03/19 09:06:59;;;;;;;18.27;6.00;;;12.30;99.90;;;;;;4140884;28;20118;-67
2022/03/19 09:09:02;;;;;;;14.40;6.07;;;12.30;99.90;;;;;;4143526;28;20049;-67
2022/03/19 09:11:03;;;;;;;15.23;5.65;;;12.40;99.90;;;;;;4147031;28;20456;-67
2022/03/19 09:13:04;;;;;;;12.80;4.88;;;12.40;99.90;;;;;;4142523;28;20042;-67
2022/03/19 09:15:07;;;;;;;12.07;4.57;;;12.50;99.90;;;;;;4145707;28;20044;-68
2022/03/19 09:17:07;;;;;;;14.73;4.88;;;12.50;99.90;;;;;;4142618;28;20173;-67
2022/03/19 09:19:08;;;;;;;12.10;5.35;;;12.40;99.90;;;;;;4144180;28;20030;-66
2022/03/19 09:21:09;;;;;;;13.73;5.35;;;12.30;99.90;;;;;;4141793;28;20133;-67
2022/03/19 09:23:10;;;;;;;11.43;4.95;;;12.20;99.90;;;;;;4142941;28;20452;-66
2022/03/19 09:25:10;;;;;;;11.75;4.82;;;12.10;99.90;;;;;;4143533;28;20045;-70
2022/03/19 09:27:11;;;;;;;13.18;4.72;;;12.10;99.90;;;;;;4143365;28;20042;-67
2022/03/19 09:29:14;;;;;;;23.17;6.35;;;12.00;99.90;;;;;;4143492;28;20034;-67
2022/03/19 09:31:16;;;;;;;11.18;4.88;;;11.90;99.90;;;;;;4141097;28;20133;-67
2022/03/19 09:33:18;;;;;;;18.23;5.33;;;12.10;99.90;;;;;;4142102;28;20466;-67
2022/03/19 09:35:18;;;;;;;11.55;4.35;;;11.80;99.90;;;;;;4145342;28;20056;-67
2022/03/19 09:37:19;;;;;;;11.70;4.60;;;12.00;99.90;;;;;;4143047;28;20543;-67
2022/03/19 09:39:19;;;;;;;12.60;4.93;;;12.10;99.90;;;;;;4140706;28;20048;-67
2022/03/19 09:41:20;;;;;;;14.35;5.00;;;12.10;99.90;;;;;;4141310;28;20038;-67
2022/03/19 09:43:22;;;;;;;13.50;4.30;;;11.90;99.90;;;;;;4143517;28;20037;-67
2022/03/19 09:45:24;;;;;;;13.60;4.50;;;12.10;99.90;;;;;;4140805;28;20124;-67
2022/03/19 09:47:26;;;;;;;14.05;4.50;;;12.20;99.90;;;;;;4147631;28;20474;-67
2022/03/19 09:49:27;;;;;;;9.27;3.88;;;12.40;98.50;;;;;;4142250;28;20033;-67
2022/03/19 09:51:31;;;;;;;15.00;4.25;;;12.50;98.10;;;;;;4142220;28;20034;-67
2022/03/19 09:53:31;;;;;;;13.65;3.90;;;12.60;96.40;;;;;;4139882;28;20034;-67
2022/03/19 09:55:33;;;;;;;9.77;3.65;;;12.60;94.70;;;;;;4140668;28;20489;-67
2022/03/19 09:57:33;;;;;;;10.52;3.65;;;12.50;93.00;;;;;;4146547;28;20073;-67
2022/03/19 09:59:36;;;;;;;6.80;3.25;;;12.50;93.50;;;;;;4140793;28;20048;-66
2022/03/19 10:01:38;;;;;;;8.93;2.90;;;12.40;90.80;;;;;;4139537;28;20046;-67
2022/03/19 10:03:39;;;;;;;9.65;3.22;;;12.30;90.40;;;;;;4142341;28;20128;-67
2022/03/19 10:10:30;;;;;;;8.95;3.03;;;12.40;90.50;;;;;;4139401;28;20102;-67
2022/03/19 10:12:31;;;;;;;8.70;3.10;;;12.50;87.50;;;;;;4141142;28;20038;-66
2022/03/19 10:14:32;;;;;;;12.48;3.83;;;12.50;86.70;;;;;;4141878;28;20062;-67
2022/03/19 10:16:35;;;;;;;11.15;4.15;;;12.40;88.40;;;;;;4141222;28;20036;-67
2022/03/19 10:18:36;;;;;;;11.43;3.20;;;12.60;86.10;;;;;;4142186;28;20061;-66
2022/03/19 10:20:37;;;;;;;8.40;3.22;;;12.60;83.30;;;;;;4140366;28;20030;-66
2022/03/19 10:22:43;;;;;;;10.75;3.50;;;12.60;79.40;;;;;;4142479;28;20520;-67
2022/03/19 10:24:44;;;;;;;6.38;3.20;;;12.60;80.60;;;;;;4141838;28;20048;-67
2022/03/19 10:26:48;;;;;;;10.73;2.85;;;12.70;81.80;;;;;;4141457;28;20049;-67
2022/03/19 10:28:57;;;;;;;10.05;2.78;;;12.50;80.40;;;;;;4143704;28;20539;-67
2022/03/19 10:30:58;;;;;;;7.50;2.95;;;12.40;75.70;;;;;;4109661;28;20065;-67
2022/03/19 10:32:59;;;;;;;7.63;3.42;;;12.60;79.30;;;;;;4143449;28;20041;-67
2022/03/19 10:35:01;;;;;;;9.82;3.40;;;12.60;80.50;;;;;;4140668;28;20053;-65
2022/03/19 10:37:02;;;;;;;7.68;2.92;;;12.60;77.30;;;;;;4141716;28;20520;-66
2022/03/19 10:39:07;;;;;;;6.70;2.67;;;12.70;77.20;;;;;;4142809;28;20042;-67
2022/03/19 10:41:08;;;;;;;6.35;2.78;;;12.70;71.20;;;;;;4124134;28;20473;-66
2022/03/19 10:43:10;;;;;;;8.05;2.53;;;12.70;71.20;;;;;;4142509;28;20485;-66
2022/03/19 10:45:21;;;;;;;8.05;2.15;;;12.70;66.50;;;;;;4145765;28;20404;-69
2022/03/19 10:47:22;;;;;;;8.43;2.50;;;12.80;65.90;;;;;;4142871;28;20038;-67